Terminal Aerodrome Forecast
Issued by NWS

Home | Current Version | Previous Version | Text Only | Print | Product List | Glossary On
Versions: 1 2 3 4 5 6 7 8 9 10 11 12 13
000
FTUS44 KCRP 261124
TAFALI
TAF
KALI 261124Z 2612/2712 VRB03KT P6SM SCT020 BKN250
      TEMPO 2612/2614 6SM BR BKN018
     FM261500 17007KT P6SM VCTS SCT030CB BKN250
     FM261900 13016KT P6SM VCTS SCT040CB BKN060 BKN250
     FM270300 14008KT P6SM FEW020 BKN250
     FM271100 16005KT P6SM BKN020=

USA.gov is the U.S. government's official web portal to all federal, state and local government web resources and services.